メインページ
METAR-TAF:

METAR-TAF

空港 :

ジュネーヴ, スイス

ジュネーヴ空港

緯度: 46-15N, 経度: 006-08E, 海抜: 420m

現時点の気象観測

当レポートは21分前の23:20(UTC)に作成
変向風 2kt
気温 7°C
湿度 57%
気圧 1019 hPa
視程10km以上

METAR: LSGG 232320Z AUTO VRB02KT 9999 NCD 07/M01 Q1019 NOSIG

時間: 01:41 (23:41 UTC)

予報

当レポートは3時間16分前の20:25(UTC)に作成
予報は23日の 21時(UTC)から 25日の 03時(UTC)まで有効
北東の風 11kt
視程10km以上
1,500メートル以下は雲なし、積乱雲なし
24日の 14時(UTC)から 24日の 17時(UTC)まで徐々に
南西の風 10kt
24日の 18時(UTC)から 24日の 21時(UTC)まで徐々に
高度8000ftの千切れ雲あり

TAF: LSGG 232025Z 2321/2503 05011KT CAVOK TX21/2415Z TN03/2405Z BECMG 2414/2417 23010KT BECMG 2418/2421 BKN080

4,000以上の空港の気象観測と天気予報(METAR報とTAF報)

利用可能な観測所は地図上に黄色い丸と赤い丸で示す。

丸の上にカーソルを重ねると観測所名を参照できる。

次にクリックすると気象観測と天気予報を参照できる。

マップの切り替え:黒色「×」印の緑ボタンをクリックして拡大、「-」印の緑ボタンをクリックして縮小、緑色の三角印をクリックして隣りの地図に切り替え


METAR-TAF: